Olympia, WA (98501)

8:12 PM PDT on September 01, 2015 (GMT -0700)
East Olympia | | Change Station
CLOSE
Current Station
Personal Weather Station
Location: Olympia, WA
Elevation: 164 ft
Nearby Weather Stations

Elev 164 ft 46.99 °N, 122.87 °W | Updated 9 minutes ago

Scattered Clouds
Scattered Clouds
57.8 °F
Feels Like 57.8 °F
N
0.0
Wind Variable Wind from South
Gusts 0.0 mph

Today
High -- | Low -- °F
--% Chance of Precip.
Yesterday
High -- | Low -- °F
Precip. -- in
6:30 AM 7:51 PM
Waning Gibbous, 84% visible
Pressure 29.82 in
Visibility 10.0 miles
Clouds Few 6000 ft
Scattered Clouds 8000 ft
Dew Point 56 °F
Humidity 93%
Rainfall 0.27 in
Snow Depth Not available.
UV 0.0 out of 12
Pollen .50 out of 12
Air Quality Not available.
Flu Activity Not available.
METAR KOLM 020254Z 23007KT 10SM FEW060 SCT080 15/12 A2982 RMK AO2 SLP098 60014 T01500122 53001
Pressure 29.82 in
Visibility 10.0 miles
Clouds Few 6000 ft
Scattered Clouds 8000 ft
Dew Point 56 °F
Humidity 93%
Rainfall 0.27 in
Snow Depth Not available.
UV 0.0 out of 12
Pollen .50 out of 12
Air Quality Not available.
Flu Activity Not available.
METAR KOLM 020254Z 23007KT 10SM FEW060 SCT080 15/12 A2982 RMK AO2 SLP098 60014 T01500122 53001

10-Day Weather Forecast

×

Almanac

Astronomy

Sep. 01, 2015 Rise Set
Actual Time
Civil Twilight
Nautical Twilight
Astronomical Twilight
Moon
Length of Visible Light
Length of Day
Tomorrow will be .
, % of the Moon is Illuminated

Today's Extremes

State Highs State Lows

Community

WunderPhotos

Upload Photos

1,851,682 photos uploaded!

WunderBlogs® & News

Nearby

Air Quality

  Air Quality AQ Index Pollutant
Not available.

Snow Depth

Station Depth Elevation

Earthquake Activity

City Distance Mag. Time & Date
Minimum magnitude displayed is 2.5.

Coastal Water Temperatures

Place Temperature

Stations

Nearby Weather Stations

Station Location Temp. Windchill Dew Point Humidity Wind Precip. Elev Updated Type